SBOSBO CAI / HECA
Speedbird OnlineSpeedbird Online CAI / HECA

Cairo International Airport
02:39 23°C

Location Cairo, Egypt
Latitude: 30.12190055847168
Longitude: 31.40559959411621
Local Time 02:39 on 26 May 2024
UTC +3 hours (Africa/Cairo)
Currency £1 equals EGP 60.05
METAR HECA 252300Z 04004KT CAVOK 23/13 Q1013 NOSIG
TAF TAF HECA 252300Z 2600/2706 36009KT CAVOK TEMPO 2600/2606 4000 HZ NSC
Weather As Of 26 May 2024 02:39
Description Clear sky
Wind 6 km/h from East (70°)
Cloud Cover 0%
Precipitation Rain: none, Snow: none
Sunrise 05:55
Sunset 19:47
NOTAM 7 active NOTAM
Rotations During the last 90 days there were
160 flights from LHR
160 flights to LHR
Lounges First Class Lounge, Terminal 2
Ahlein Premium Lounge, Terminal 2
Pearl Lounge , Terminal 2, Mezzanine Level
Web Wikipedia
Codes IATA: CAI
ICAO: HECA
Altitude 116 Meter / 382 Feet
Distance 3,499 KM / 2,174 Miles
from London.
Runways
RunwayLength (m)Surface
05C3999Asphalt
05L3301Asphalt
05R4000Asphalt
23C3999Asphalt
23L4000Asphalt
23R3301Asphalt
Radio
TypeDescriptionFrequency
APPAPP119.05
ATISATIS122.6
GNDGND121.9
MISCVOLMET126.2
PFLTPREFLIGHT120.1
TWRTWR118.1
Volmet124.6
rdocairo radio11.3
Live ATC



Support Speedbird Online

© 2017-2024 Speedbird Online